createdAt,value
2022-11-22T00:06:48.626Z,109.65
2022-11-22T00:11:54.300Z,99.15
2022-11-22T00:16:59.910Z,72.55
2022-11-22T00:22:06.189Z,99.53
2022-11-22T00:27:17.361Z,111.40
2022-11-22T00:32:23.017Z,105.30
2022-11-22T00:37:28.141Z,111.00
2022-11-22T00:42:33.458Z,110.73
2022-11-22T00:47:39.130Z,111.40
2022-11-22T00:52:44.637Z,109.80
2022-11-22T00:57:51.049Z,98.80
2022-11-22T01:03:02.235Z,102.18
2022-11-22T01:08:10.941Z,121.72
2022-11-22T01:13:16.806Z,113.18
2022-11-22T01:23:26.827Z,112.55
2022-11-22T01:28:32.977Z,116.97
2022-11-22T01:33:39.297Z,120.70
2022-11-22T01:38:47.723Z,128.15
2022-11-22T01:43:53.069Z,121.47
2022-11-22T01:49:06.252Z,129.73
2022-11-22T01:54:24.158Z,124.60
2022-11-22T01:59:31.282Z,129.02
2022-11-22T02:04:37.943Z,112.50
2022-11-22T02:09:43.854Z,77.90
2022-11-22T02:19:55.562Z,103.47
2022-11-22T02:25:20.230Z,107.00
2022-11-22T02:30:26.162Z,95.40
2022-11-22T02:35:32.661Z,75.35
2022-11-22T02:40:59.418Z,85.22
2022-11-22T02:46:12.218Z,84.00
2022-11-22T02:51:19.090Z,69.50
2022-11-22T02:56:24.792Z,92.75
2022-11-22T03:01:30.446Z,72.53
2022-11-22T03:11:41.038Z,69.53
2022-11-22T03:16:47.586Z,69.90
2022-11-22T03:21:53.232Z,60.28
2022-11-22T03:26:58.730Z,56.08
2022-11-22T03:37:09.104Z,76.00
2022-11-22T03:42:19.744Z,63.08
2022-11-22T03:47:27.264Z,50.40
2022-11-22T03:52:32.955Z,65.45
2022-11-22T03:57:38.503Z,57.95
2022-11-22T04:02:44.430Z,54.80
2022-11-22T04:07:50.380Z,39.10
2022-11-22T04:12:59.673Z,55.08
2022-11-22T04:18:06.979Z,58.50
2022-11-22T04:23:12.588Z,54.38
2022-11-22T04:28:18.827Z,53.25
2022-11-22T04:33:25.065Z,44.70
2022-11-22T04:38:30.733Z,48.22
2022-11-22T04:43:54.654Z,36.17
2022-11-22T04:49:00.010Z,55.20
2022-11-22T04:54:05.893Z,48.90
2022-11-22T04:59:11.531Z,50.13
2022-11-22T05:04:16.828Z,51.97
2022-11-22T05:09:23.050Z,48.47
2022-11-22T05:14:28.796Z,48.83
2022-11-22T05:19:35.159Z,49.63
2022-11-22T05:24:40.769Z,47.83
2022-11-22T05:29:48.878Z,45.22
2022-11-22T05:34:59.069Z,53.25
2022-11-22T05:40:04.664Z,44.45
2022-11-22T05:45:10.318Z,44.40
2022-11-22T05:50:16.033Z,45.58
2022-11-22T05:55:33.275Z,41.03
2022-11-22T06:00:38.883Z,45.92
2022-11-22T06:05:44.026Z,41.07
2022-11-22T06:10:49.322Z,46.35
2022-11-22T06:15:55.017Z,42.25
2022-11-22T06:26:06.681Z,42.15
2022-11-22T06:31:15.377Z,34.92
2022-11-22T06:36:22.792Z,41.15
2022-11-22T06:41:29.151Z,47.50
2022-11-22T06:46:34.921Z,36.20
2022-11-22T06:56:48.457Z,42.65
2022-11-22T07:01:54.170Z,36.92
2022-11-22T07:07:06.023Z,41.72
2022-11-22T07:12:11.906Z,43.55
2022-11-22T07:22:22.556Z,41.28
2022-11-22T07:27:28.205Z,37.85
2022-11-22T07:32:42.924Z,33.63
2022-11-22T07:37:49.194Z,33.33
2022-11-22T07:42:58.478Z,39.03
2022-11-22T07:48:05.301Z,39.65
2022-11-22T07:53:24.134Z,38.70
2022-11-22T07:58:29.892Z,36.20
2022-11-22T08:03:35.807Z,38.55
2022-11-22T08:08:41.401Z,33.10
2022-11-22T08:13:47.218Z,33.90
2022-11-22T08:18:53.173Z,43.65
2022-11-22T08:24:00.883Z,42.70
2022-11-22T08:29:12.532Z,40.63
2022-11-22T08:34:22.699Z,43.25
2022-11-22T08:39:29.186Z,50.28
2022-11-22T08:44:34.891Z,38.55
2022-11-22T08:49:40.281Z,53.80
2022-11-22T08:54:45.848Z,44.63
2022-11-22T08:59:51.703Z,38.28
2022-11-22T09:04:57.327Z,40.78
2022-11-22T09:10:03.043Z,42.90
2022-11-22T09:20:20.530Z,46.30
2022-11-22T09:25:26.177Z,38.85
2022-11-22T09:30:32.496Z,49.08
2022-11-22T09:35:38.216Z,47.70
2022-11-22T09:40:48.621Z,47.33
2022-11-22T09:46:04.446Z,45.78
2022-11-22T09:51:13.334Z,46.70
2022-11-22T09:56:20.473Z,50.60
2022-11-22T10:01:37.209Z,45.78
2022-11-22T10:07:03.403Z,53.05
2022-11-22T10:12:27.989Z,56.50
2022-11-22T10:17:52.079Z,58.53
2022-11-22T10:22:59.742Z,59.25
2022-11-22T10:28:16.829Z,57.78
2022-11-22T10:33:28.628Z,53.92
2022-11-22T10:38:40.454Z,56.40
2022-11-22T10:43:54.500Z,63.42
2022-11-22T10:49:00.108Z,53.85
2022-11-22T10:54:24.803Z,62.70
2022-11-22T10:59:45.811Z,75.68
2022-11-22T11:04:51.890Z,91.30
2022-11-22T11:10:11.484Z,83.07
2022-11-22T11:15:18.721Z,88.82
2022-11-22T11:20:28.270Z,90.13
2022-11-22T11:25:48.004Z,84.95
2022-11-22T11:30:55.639Z,84.35
2022-11-22T11:36:09.010Z,98.57
2022-11-22T11:41:25.536Z,95.40
2022-11-22T11:46:31.858Z,79.35
2022-11-22T11:51:47.256Z,87.50
2022-11-22T11:57:00.590Z,95.53
2022-11-22T12:02:25.644Z,100.30
2022-11-22T12:07:41.658Z,101.47
2022-11-22T12:18:09.686Z,102.65
2022-11-22T12:23:50.907Z,104.70
2022-11-22T12:29:00.733Z,97.28
2022-11-22T12:34:35.470Z,115.57
2022-11-22T12:39:41.015Z,106.15
2022-11-22T12:49:56.882Z,104.30
2022-11-22T12:55:15.362Z,111.97
2022-11-22T13:00:34.870Z,104.95
2022-11-22T13:05:53.260Z,102.97
2022-11-22T13:11:21.639Z,102.05
2022-11-22T13:16:30.343Z,108.85
2022-11-22T13:21:51.935Z,105.03
2022-11-22T13:27:07.318Z,105.25
2022-11-22T13:32:21.806Z,120.82
2022-11-22T13:37:32.335Z,112.45
2022-11-22T13:42:47.717Z,108.65
2022-11-22T13:47:56.682Z,114.00
2022-11-22T13:53:21.608Z,102.88
2022-11-22T13:58:34.806Z,115.57
2022-11-22T14:04:01.635Z,95.38
2022-11-22T14:09:30.137Z,110.57
2022-11-22T14:14:51.385Z,116.78
2022-11-22T14:20:13.543Z,115.03
2022-11-22T14:25:36.570Z,119.97
2022-11-22T14:30:48.292Z,110.50
2022-11-22T14:36:09.061Z,117.20
2022-11-22T14:41:36.441Z,129.10
2022-11-22T14:53:00.559Z,122.47
2022-11-22T14:58:15.876Z,114.13
2022-11-22T15:03:33.690Z,129.32
2022-11-22T15:09:16.119Z,130.60
2022-11-22T16:00:29.373Z,107.13
2022-11-22T16:06:09.145Z,113.70
2022-11-22T16:11:02.098Z,118.53
2022-11-22T16:16:17.490Z,124.57
2022-11-22T16:21:30.038Z,132.40
2022-11-22T16:26:44.502Z,122.22
2022-11-22T16:31:50.552Z,129.32
2022-11-22T16:36:59.297Z,130.27
2022-11-22T16:42:08.756Z,134.73
2022-11-22T16:47:20.976Z,126.43
2022-11-22T16:52:29.891Z,136.20
2022-11-22T16:57:38.496Z,136.93
2022-11-22T17:02:44.786Z,122.18
2022-11-22T17:07:52.308Z,124.25
2022-11-22T17:13:01.513Z,122.68
2022-11-22T17:18:07.222Z,133.35
2022-11-22T17:23:15.899Z,126.90
2022-11-22T17:28:22.115Z,127.38
2022-11-22T17:33:28.370Z,125.03
2022-11-22T17:38:33.735Z,107.82
2022-11-22T17:43:42.114Z,108.00
2022-11-22T17:48:57.976Z,103.07
2022-11-22T17:54:03.473Z,117.47
2022-11-22T17:59:09.044Z,124.95
2022-11-22T18:04:16.013Z,114.15
2022-11-22T18:09:21.284Z,119.00
2022-11-22T18:14:27.571Z,113.17
2022-11-22T18:19:33.340Z,112.05
2022-11-22T18:24:39.231Z,100.15
2022-11-22T18:29:44.547Z,113.57
2022-11-22T18:34:50.222Z,109.27
2022-11-22T18:39:56.446Z,98.20
2022-11-22T18:45:01.758Z,86.68
2022-11-22T18:50:12.155Z,95.80
2022-11-22T18:55:19.163Z,90.43
2022-11-22T19:00:24.534Z,99.03
2022-11-22T19:05:30.067Z,95.53
2022-11-22T19:10:35.693Z,97.80
2022-11-22T19:15:41.261Z,93.32
2022-11-22T19:20:55.174Z,95.78
2022-11-22T19:26:00.938Z,94.18
2022-11-22T19:31:09.178Z,87.05
2022-11-22T19:36:23.507Z,94.78
2022-11-22T19:41:32.478Z,89.18
2022-11-22T19:46:40.210Z,88.38
2022-11-22T19:51:45.513Z,86.22
2022-11-22T19:56:51.523Z,83.93
2022-11-22T20:01:56.725Z,78.72
2022-11-22T20:07:02.287Z,80.27
2022-11-22T20:12:08.834Z,69.05
2022-11-22T20:17:14.150Z,72.82
2022-11-22T20:22:19.763Z,67.68
2022-11-22T20:27:25.451Z,66.18
2022-11-22T20:32:31.500Z,65.07
2022-11-22T20:37:37.224Z,64.35
2022-11-22T20:42:42.477Z,65.60
2022-11-22T20:47:47.985Z,64.90
2022-11-22T20:52:53.638Z,65.90
2022-11-22T20:57:59.250Z,64.00
2022-11-22T21:03:04.544Z,64.60
2022-11-22T21:08:09.816Z,60.20
2022-11-22T21:13:15.442Z,59.30
2022-11-22T21:18:26.029Z,58.40
2022-11-22T21:23:31.749Z,52.55
2022-11-22T21:28:41.314Z,58.55
2022-11-22T21:33:49.189Z,55.53
2022-11-22T21:38:54.455Z,60.50
2022-11-22T21:44:00.133Z,59.10
2022-11-22T21:49:05.718Z,59.28
2022-11-22T21:54:11.228Z,56.10
2022-11-22T21:59:17.184Z,57.13
2022-11-22T22:04:22.552Z,54.58
2022-11-22T22:09:28.490Z,44.60
2022-11-22T22:14:34.519Z,51.13
2022-11-22T22:19:53.816Z,45.40
2022-11-22T22:24:59.029Z,41.45
2022-11-22T22:30:04.719Z,46.20
2022-11-22T22:35:10.723Z,44.05
2022-11-22T22:40:16.296Z,44.75
2022-11-22T22:50:26.516Z,45.38
2022-11-22T22:55:31.913Z,46.10
2022-11-22T23:00:38.215Z,43.33
2022-11-22T23:05:44.351Z,37.90
2022-11-22T23:10:50.500Z,40.85
2022-11-22T23:15:58.857Z,43.92
2022-11-22T23:21:05.517Z,47.53
2022-11-22T23:26:12.566Z,53.42
2022-11-22T23:31:18.491Z,53.90
2022-11-22T23:41:29.611Z,50.53
2022-11-22T23:46:35.290Z,55.42
2022-11-22T23:51:41.485Z,51.05
2022-11-22T23:56:47.034Z,64.18
